Time;durP1;ratioP1;P1;durP2;ratioP2;P2;SDS_P1;SDS_P2;PMS_P1;PMS_P2;Temp;Humidity;BMP_temperature;BMP_pressure;BME280_temperature;BME280_humidity;BME280_pressure;Samples;Min_cycle;Max_cycle;Signal;HPM_P1;HPM_P2
2022/06/03 00:02:51;;;;;;;1999.90;999.90;;;13.10;99.90;;;;;;5074896;28;20230;-61
2022/06/03 00:05:44;;;;;;;1999.90;999.90;;;13.10;99.90;;;;;;5074895;28;20206;-60
2022/06/03 00:08:37;;;;;;;1999.90;999.90;;;13.10;99.90;;;;;;5075091;28;20509;-61
2022/06/03 00:11:37;;;;;;;1999.90;999.90;;;13.10;99.90;;;;;;5074720;28;20632;-61
2022/06/03 00:14:36;;;;;;;1999.90;999.90;;;13.10;99.90;;;;;;5075091;28;20547;-61
2022/06/03 00:17:12;;;;;;;1999.90;999.90;;;13.00;99.90;;;;;;5074924;28;20187;-61
2022/06/03 00:19:59;;;;;;;1999.90;999.90;;;12.90;99.90;;;;;;5074888;28;20179;-61
2022/06/03 00:22:52;;;;;;;1999.90;999.90;;;12.80;99.90;;;;;;5074773;28;20202;-60
2022/06/03 00:25:51;;;;;;;1999.90;999.90;;;12.90;99.90;;;;;;5074666;28;20597;-62
2022/06/03 00:28:36;;;;;;;1999.90;999.90;;;12.80;99.90;;;;;;5074721;28;20187;-61
2022/06/03 00:31:15;;;;;;;1999.90;999.90;;;12.80;99.90;;;;;;5074372;28;20232;-61
2022/06/03 00:33:57;;;;;;;1999.90;999.90;;;12.80;99.90;;;;;;5074625;28;20204;-61
2022/06/03 00:36:36;;;;;;;1999.90;999.90;;;12.80;99.90;;;;;;5074444;28;20179;-61
2022/06/03 00:39:28;;;;;;;1999.90;999.90;;;12.80;99.90;;;;;;5074220;28;20643;-61
2022/06/03 00:42:06;;;;;;;1999.90;999.90;;;12.80;99.90;;;;;;5074466;28;20184;-61
2022/06/03 00:44:54;;;;;;;1999.90;999.90;;;12.80;99.90;;;;;;5074105;28;20222;-61
2022/06/03 00:47:37;;;;;;;1999.90;999.90;;;12.90;99.90;;;;;;5074340;28;20175;-61
2022/06/03 00:50:32;;;;;;;1999.90;999.90;;;12.90;99.90;;;;;;5074283;28;20187;-61
2022/06/03 00:53:28;;;;;;;1999.90;999.90;;;12.90;99.90;;;;;;5074182;28;20191;-61
2022/06/03 00:56:22;;;;;;;1999.90;999.90;;;12.90;99.90;;;;;;5074130;28;20183;-61
2022/06/03 00:58:58;;;;;;;1999.90;999.90;;;12.90;99.90;;;;;;5073813;28;20632;-60
2022/06/03 01:01:32;;;;;;;1999.90;999.90;;;12.80;99.90;;;;;;5073699;28;20195;-61
2022/06/03 01:04:25;;;;;;;1999.90;999.90;;;12.80;99.90;;;;;;5073488;28;20233;-60
2022/06/03 01:07:06;;;;;;;1999.90;999.90;;;12.80;99.90;;;;;;5073778;28;20363;-61
2022/06/03 01:09:49;;;;;;;1999.90;999.90;;;12.80;99.90;;;;;;5073852;28;20183;-61
2022/06/03 01:12:50;;;;;;;1999.90;999.90;;;12.80;99.90;;;;;;5073843;28;20270;-61
2022/06/03 01:15:28;;;;;;;1999.90;999.90;;;12.80;99.90;;;;;;5073469;28;20631;-61
2022/06/03 01:18:17;;;;;;;1999.90;999.90;;;12.60;99.90;;;;;;5073719;28;20186;-61
2022/06/03 01:20:56;;;;;;;1999.90;999.90;;;12.60;99.90;;;;;;5073512;28;20240;-60
2022/06/03 01:23:54;;;;;;;1999.90;999.90;;;12.50;99.90;;;;;;5073295;28;20187;-60
2022/06/03 01:26:48;;;;;;;1999.90;999.90;;;12.50;99.90;;;;;;5073752;28;20209;-61
2022/06/03 01:29:52;;;;;;;1999.90;999.90;;;12.50;99.90;;;;;;5073884;28;20278;-60
2022/06/03 01:32:37;;;;;;;1999.90;999.90;;;12.50;99.90;;;;;;5063244;28;20213;-60
2022/06/03 01:35:28;;;;;;;1999.90;999.90;;;12.50;99.90;;;;;;5073294;28;20186;-60
2022/06/03 01:37:57;;;;;;;1999.90;999.90;;;12.50;99.90;;;;;;5060337;28;20271;-60
2022/06/03 01:40:43;;;;;;;1999.90;999.90;;;12.40;99.90;;;;;;5073237;28;20580;-61
2022/06/03 01:43:39;;;;;;;1999.90;999.90;;;12.30;99.90;;;;;;5073235;28;20214;-61
2022/06/03 01:46:28;;;;;;;1999.90;999.90;;;12.20;99.90;;;;;;5073108;28;20216;-61
2022/06/03 01:49:27;;;;;;;1999.90;999.90;;;12.00;99.90;;;;;;5073194;28;20193;-60
2022/06/03 01:52:36;;;;;;;1999.90;999.90;;;11.90;99.90;;;;;;5072702;28;20671;-61
2022/06/03 01:55:52;;;;;;;1999.90;999.90;;;11.90;99.90;;;;;;5010918;28;20298;-61
2022/06/03 01:58:49;;;;;;;1999.90;999.90;;;11.80;99.90;;;;;;4952536;29;20211;-61
2022/06/03 02:02:07;;;;;;;1999.90;999.90;;;11.80;99.90;;;;;;4952453;29;20200;-61
2022/06/03 02:04:59;;;;;;;1999.90;999.90;;;11.80;99.90;;;;;;4952301;29;20210;-60
2022/06/03 02:07:46;;;;;;;1999.90;999.90;;;11.80;99.90;;;;;;4950072;29;20343;-60
2022/06/03 02:10:41;;;;;;;1999.90;999.90;;;11.80;99.90;;;;;;4952391;29;20186;-61
2022/06/03 02:13:45;;;;;;;1999.90;999.90;;;11.80;99.90;;;;;;4952353;29;20217;-60
2022/06/03 02:16:34;;;;;;;1999.90;999.90;;;11.70;99.90;;;;;;4951616;28;20236;-61
2022/06/03 02:19:27;;;;;;;1999.90;999.90;;;11.70;99.90;;;;;;4952327;29;20206;-60
2022/06/03 02:22:33;;;;;;;1999.90;999.90;;;11.60;99.90;;;;;;4927038;29;20209;-61
2022/06/03 02:25:25;;;;;;;1999.90;999.90;;;11.60;99.90;;;;;;4952231;29;20272;-61
2022/06/03 02:28:23;;;;;;;1999.90;999.90;;;11.50;99.90;;;;;;4952240;29;20557;-61
2022/06/03 02:31:13;;;;;;;1999.90;999.90;;;11.50;99.90;;;;;;4986753;28;20225;-60
2022/06/03 02:34:18;;;;;;;1999.90;999.90;;;11.50;99.90;;;;;;5072567;28;20192;-60
2022/06/03 02:37:10;;;;;;;1999.90;999.90;;;11.40;99.90;;;;;;5072422;28;20182;-60
2022/06/03 02:40:21;;;;;;;1999.90;999.90;;;11.40;99.90;;;;;;5074165;28;20185;-61
2022/06/03 02:43:14;;;;;;;1999.90;999.90;;;11.30;99.90;;;;;;5051407;28;20224;-60
2022/06/03 02:46:12;;;;;;;1999.90;999.90;;;11.30;99.90;;;;;;5072043;28;20682;-61
2022/06/03 02:49:22;;;;;;;1999.90;999.90;;;11.20;99.90;;;;;;5067816;28;20209;-60
2022/06/03 02:52:27;;;;;;;1999.90;999.90;;;11.20;99.90;;;;;;5010143;28;20656;-61
2022/06/03 02:55:27;;;;;;;1999.90;999.90;;;11.10;99.90;;;;;;5010231;28;20317;-61
2022/06/03 02:58:21;;;;;;;1999.90;999.90;;;11.10;99.90;;;;;;5010219;28;20213;-61
2022/06/03 03:01:08;;;;;;;1999.90;999.90;;;11.20;99.90;;;;;;5010073;28;20216;-60
2022/06/03 03:04:22;;;;;;;1999.90;999.90;;;11.30;99.90;;;;;;5009965;28;20243;-60
2022/06/03 03:07:09;;;;;;;1999.90;999.90;;;11.30;99.90;;;;;;4942132;29;20244;-60
2022/06/03 03:10:11;;;;;;;1999.90;999.90;;;11.20;99.90;;;;;;4951804;29;20643;-60
2022/06/03 03:12:59;;;;;;;1999.90;999.90;;;11.20;99.90;;;;;;4928123;29;20264;-60
2022/06/03 03:16:03;;;;;;;1999.90;999.90;;;11.30;99.90;;;;;;4951699;29;20219;-61
2022/06/03 03:18:56;;;;;;;1999.90;999.90;;;11.30;99.90;;;;;;4951623;29;20218;-60
2022/06/03 03:21:44;;;;;;;1999.90;999.90;;;11.20;99.90;;;;;;4951588;29;20210;-60
2022/06/03 03:24:51;;;;;;;1999.90;999.90;;;11.20;99.90;;;;;;4951722;29;20233;-61
2022/06/03 03:27:34;;;;;;;1999.90;999.90;;;11.10;99.90;;;;;;5009954;28;20223;-60
2022/06/03 03:30:18;;;;;;;1999.90;999.90;;;11.10;99.90;;;;;;5013629;28;20219;-60
2022/06/03 03:33:08;;;;;;;1999.90;999.90;;;11.00;99.90;;;;;;5013630;28;20563;-60
2022/06/03 03:36:13;;;;;;;1999.90;999.90;;;11.10;99.90;;;;;;5000463;28;20234;-60
2022/06/03 03:39:13;;;;;;;1999.90;999.90;;;11.00;99.90;;;;;;5015622;28;20200;-60
2022/06/03 03:42:10;;;;;;;1999.90;999.90;;;11.00;99.90;;;;;;5069432;28;20234;-60
2022/06/03 03:45:23;;;;;;;1999.90;999.90;;;11.00;99.90;;;;;;5075463;28;20201;-60
2022/06/03 03:48:49;;;;;;;1999.90;999.90;;;11.00;99.90;;;;;;5075094;28;20208;-60
2022/06/03 03:51:32;;;;;;;1999.90;999.90;;;11.00;99.90;;;;;;5075341;28;20184;-61
2022/06/03 03:54:32;;;;;;;1999.90;999.90;;;11.00;99.90;;;;;;5075395;28;20177;-61
2022/06/03 03:57:44;;;;;;;1999.90;999.90;;;11.00;99.90;;;;;;5075300;28;20181;-61
2022/06/03 04:00:39;;;;;;;1999.90;999.90;;;11.00;99.90;;;;;;5075289;28;20237;-61
2022/06/03 04:03:45;;;;;;;1999.90;999.90;;;11.10;99.90;;;;;;5048489;28;20254;-60
2022/06/03 04:06:35;;;;;;;1999.90;999.90;;;11.10;99.90;;;;;;5012751;28;20228;-60
2022/06/03 04:09:39;;;;;;;1999.90;999.90;;;11.10;99.90;;;;;;5012878;28;20309;-61
2022/06/03 04:12:44;;;;;;;1999.90;999.90;;;11.20;99.90;;;;;;5012901;28;20630;-61
2022/06/03 04:15:50;;;;;;;1999.90;999.90;;;11.30;99.90;;;;;;5012837;28;20213;-60
2022/06/03 04:18:47;;;;;;;1999.90;999.90;;;11.30;99.90;;;;;;5012725;28;20198;-61
2022/06/03 04:22:03;;;;;;;1999.90;999.90;;;11.40;99.90;;;;;;5012669;28;20192;-60
2022/06/03 04:24:58;;;;;;;1999.90;999.90;;;11.50;99.90;;;;;;5012605;28;21165;-61
2022/06/03 04:28:19;;;;;;;1999.90;999.90;;;11.50;99.90;;;;;;5012456;28;20234;-60
2022/06/03 04:31:14;;;;;;;1999.90;999.90;;;11.60;99.90;;;;;;4954404;29;20213;-61
2022/06/03 04:34:33;;;;;;;1999.90;999.90;;;11.70;99.90;;;;;;4954971;29;20212;-61
2022/06/03 04:37:31;;;;;;;1999.90;999.90;;;11.90;99.90;;;;;;4953851;29;20210;-61
2022/06/03 04:40:46;;;;;;;1999.90;999.90;;;12.00;99.90;;;;;;4953198;28;20224;-61
2022/06/03 04:43:49;;;;;;;1999.90;999.90;;;12.10;99.90;;;;;;4998516;28;20217;-61
2022/06/03 04:46:55;;;;;;;1999.90;999.90;;;12.20;99.90;;;;;;5012119;28;20226;-61
2022/06/03 04:50:01;;;;;;;1999.90;999.90;;;12.30;99.90;;;;;;5012075;28;20204;-61
2022/06/03 04:53:10;;;;;;;1999.90;999.90;;;12.40;99.90;;;;;;5011968;28;20729;-61
2022/06/03 04:56:34;;;;;;;1999.90;999.90;;;12.50;99.90;;;;;;5012004;28;20633;-61
2022/06/03 05:00:07;;;;;;;1999.90;999.90;;;12.60;99.90;;;;;;5011914;28;20816;-60
2022/06/03 05:03:07;;;;;;;1999.90;999.90;;;12.80;99.90;;;;;;4934279;29;20235;-60
2022/06/03 05:06:24;;;;;;;1999.90;999.90;;;13.00;99.90;;;;;;4992168;28;20209;-60
2022/06/03 05:09:40;;;;;;;1999.90;999.90;;;13.30;99.90;;;;;;5011803;28;20251;-61
2022/06/03 05:12:55;;;;;;;1999.90;999.90;;;13.70;99.90;;;;;;5011731;28;20197;-61
2022/06/03 05:16:01;;;;;;;1999.90;999.90;;;14.40;99.90;;;;;;5011691;28;20200;-61
2022/06/03 05:19:04;;;;;;;1999.90;999.90;;;15.30;99.90;;;;;;5011613;28;20193;-61
2022/06/03 05:22:14;;;;;;;1999.90;999.90;;;16.40;99.90;;;;;;5011233;28;20709;-61
2022/06/03 05:25:05;;;;;;;1999.90;999.90;;;17.30;99.90;;;;;;5011599;28;20189;-67
2022/06/03 05:28:15;;;;;;;1999.90;999.90;;;17.40;99.90;;;;;;5012481;28;20258;-62
2022/06/03 05:31:09;;;;;;;1999.90;999.90;;;18.00;99.90;;;;;;5011519;28;20187;-61
2022/06/03 05:33:59;;;;;;;1999.90;999.90;;;18.40;91.70;;;;;;5043829;28;20263;-61
2022/06/03 05:37:02;;;;;;;1999.90;999.90;;;18.80;99.90;;;;;;5072718;28;20197;-62
2022/06/03 05:40:03;;;;;;;1999.90;999.90;;;18.90;1.00;;;;;;5073073;28;20191;-62
2022/06/03 05:42:43;;;;;;;1999.90;999.90;;;19.00;99.90;;;;;;5072941;28;20183;-62
2022/06/03 05:45:51;;;;;;;1999.90;999.90;;;18.80;99.90;;;;;;5072726;28;20187;-62
2022/06/03 05:48:24;;;;;;;1999.90;999.90;;;19.40;1.00;;;;;;5072651;28;20211;-62
2022/06/03 05:50:58;;;;;;;1999.90;999.90;;;19.40;99.90;;;;;;5072613;28;20278;-62
2022/06/03 05:53:38;;;;;;;1999.90;999.90;;;19.30;99.90;;;;;;5072826;28;20308;-62
2022/06/03 05:56:33;;;;;;;1999.90;999.90;;;19.60;99.90;;;;;;5072823;28;20183;-60
2022/06/03 05:59:09;;;;;;;1999.90;999.90;;;19.90;94.70;;;;;;5072649;28;20187;-62
2022/06/03 06:02:03;;;;;;;1999.90;999.90;;;20.30;1.00;;;;;;5072647;28;20179;-62
2022/06/03 06:04:48;;;;;;;1999.90;999.90;;;20.50;1.00;;;;;;5072344;28;20217;-62
2022/06/03 06:07:26;;;;;;;1999.90;999.90;;;20.70;1.00;;;;;;5072610;28;20199;-62
2022/06/03 06:09:59;;;;;;;1999.90;999.90;;;20.70;99.90;;;;;;5072584;28;20267;-63
2022/06/03 06:12:45;;;;;;;1999.90;999.90;;;21.10;99.90;;;;;;5072557;28;20184;-63
2022/06/03 06:15:38;;;;;;;1999.90;999.90;;;20.90;99.90;;;;;;5072279;28;20183;-62
2022/06/03 06:18:15;;;;;;;1999.90;999.90;;;20.70;1.00;;;;;;5048692;28;20309;-62
2022/06/03 06:20:55;;;;;;;1999.90;999.90;;;20.70;1.00;;;;;;5072371;28;20191;-62
2022/06/03 06:23:36;;;;;;;1999.90;999.90;;;20.70;1.00;;;;;;5072483;28;20517;-62
2022/06/03 06:26:38;;;;;;;1999.90;999.90;;;20.90;1.00;;;;;;5072417;28;20183;-62
2022/06/03 06:29:39;;;;;;;1999.90;999.90;;;20.80;1.00;;;;;;5072366;28;20541;-60
2022/06/03 06:32:34;;;;;;;1999.90;999.90;;;21.40;1.00;;;;;;5071981;28;20286;-61
2022/06/03 06:35:47;;;;;;;1999.90;999.90;;;22.00;1.00;;;;;;5072044;28;20589;-60
2022/06/03 06:38:45;;;;;;;1999.90;999.90;;;21.90;99.90;;;;;;5105091;27;1340879;-63
2022/06/03 06:41:31;;;;;;;1999.90;999.90;;;22.20;99.90;;;;;;5130477;28;20294;-63
2022/06/03 06:44:07;;;;;;;1999.90;999.90;;;22.20;99.90;;;;;;5130302;28;20189;-63
2022/06/03 06:46:46;;;;;;;1999.90;999.90;;;23.30;99.90;;;;;;5130453;28;20177;-63
2022/06/03 06:49:24;;;;;;;1999.90;999.90;;;23.70;99.90;;;;;;5130344;28;20196;-63
2022/06/03 06:52:12;;;;;;;1999.90;999.90;;;23.40;99.90;;;;;;5130120;28;20587;-63
2022/06/03 06:54:53;;;;;;;1999.90;999.90;;;23.30;49.20;;;;;;5129753;28;20548;-64
2022/06/03 06:57:24;;;;;;;1999.90;999.90;;;23.40;92.70;;;;;;5129867;28;20193;-63
2022/06/03 06:59:58;;;;;;;1999.90;999.90;;;23.20;1.00;;;;;;5130003;28;20288;-62
2022/06/03 07:02:31;;;;;;;1999.90;999.90;;;23.40;1.00;;;;;;5129836;28;20178;-63
2022/06/03 07:05:03;;;;;;;1999.90;999.90;;;23.80;1.00;;;;;;5130121;28;20185;-63
2022/06/03 07:07:35;;;;;;;1999.90;999.90;;;23.90;1.00;;;;;;5129497;28;20169;-63
2022/06/03 07:10:11;;;;;;;1999.90;999.90;;;23.80;1.00;;;;;;5130174;28;20196;-63
2022/06/03 07:12:43;;;;;;;1999.90;999.90;;;23.90;1.00;;;;;;5129779;28;20192;-64
2022/06/03 07:15:14;;;;;;;1999.90;999.90;;;24.10;1.00;;;;;;5129158;28;20275;-63
2022/06/03 07:20:43;;;;;;;1999.90;999.90;;;24.50;1.00;;;;;;5129561;28;20574;-63
2022/06/03 07:23:17;;;;;;;1999.90;999.90;;;24.20;1.00;;;;;;5129416;28;20508;-63
2022/06/03 07:25:48;;;;;;;1999.90;999.90;;;24.30;1.00;;;;;;5129343;28;20186;-63
2022/06/03 07:28:28;;;;;;;1999.90;999.90;;;24.40;1.00;;;;;;5129458;28;20272;-63
2022/06/03 07:30:59;;;;;;;1999.90;999.90;;;25.00;1.00;;;;;;5129412;28;20182;-63
2022/06/03 07:33:42;;;;;;;1999.90;999.90;;;24.70;1.00;;;;;;5129529;28;20277;-63
2022/06/03 07:36:18;;;;;;;1999.90;999.90;;;25.20;1.00;;;;;;5129584;28;20191;-63
2022/06/03 07:38:50;;;;;;;1999.90;999.90;;;25.20;1.00;;;;;;5129037;28;20232;-63
2022/06/03 07:41:25;;;;;;;1999.90;999.90;;;25.50;1.00;;;;;;5129632;28;20537;-63
2022/06/03 07:43:57;;;;;;;1999.90;999.90;;;25.00;1.00;;;;;;5129423;28;20200;-63
2022/06/03 07:46:27;;;;;;;1999.90;999.90;;;25.60;1.00;;;;;;5129539;28;20182;-63
2022/06/03 07:48:55;;;;;;;1999.90;999.90;;;25.00;1.00;;;;;;5121459;28;20190;-63
2022/06/03 07:51:26;;;;;;;1999.90;999.90;;;25.00;1.00;;;;;;5115587;28;20559;-63
2022/06/03 07:54:00;;;;;;;1999.90;999.90;;;25.70;1.00;;;;;;5115251;28;20193;-64
2022/06/03 07:56:31;;;;;;;1999.90;999.90;;;25.50;99.90;;;;;;5115488;28;20186;-63
2022/06/03 07:59:02;;;;;;;1999.90;999.90;;;26.30;99.90;;;;;;5115810;28;20284;-63
2022/06/03 08:01:31;;;;;;;1999.90;999.90;;;25.80;99.90;;;;;;5115518;28;20174;-63
2022/06/03 08:03:58;;;;;;;1999.90;999.90;;;25.70;99.90;;;;;;5115344;28;20285;-63
2022/06/03 08:06:30;;;;;;;1999.90;999.90;;;25.70;99.90;;;;;;5114895;28;20223;-63
2022/06/03 08:11:53;;;;;;;1999.90;999.90;;;26.30;99.90;;;;;;5032179;28;20287;-63
2022/06/03 08:14:27;;;;;;;1999.90;999.90;;;26.80;99.90;;;;;;5032219;28;20189;-63
2022/06/03 08:16:55;;;;;;;1999.90;999.90;;;26.70;99.90;;;;;;5032030;28;20209;-63
2022/06/03 08:19:26;;;;;;;1999.90;999.90;;;26.40;99.90;;;;;;5031951;28;20200;-63
2022/06/03 08:21:56;;;;;;;1999.90;999.90;;;26.40;99.90;;;;;;5031990;28;20212;-63
2022/06/03 08:24:26;;;;;;;1999.90;999.90;;;26.30;99.90;;;;;;5031929;28;20817;-63
2022/06/03 08:26:58;;;;;;;1999.90;999.90;;;26.40;99.90;;;;;;5031945;28;20193;-63
2022/06/03 08:29:32;;;;;;;1999.90;999.90;;;26.60;99.90;;;;;;5031828;28;20204;-63
2022/06/03 08:32:00;;;;;;;1999.90;999.90;;;26.80;99.90;;;;;;5031886;28;20193;-63
2022/06/03 08:34:32;;;;;;;1999.90;999.90;;;26.80;99.90;;;;;;5031815;28;20491;-63
2022/06/03 08:37:01;;;;;;;1999.90;999.90;;;27.10;99.90;;;;;;5031468;28;22111;-63
2022/06/03 08:39:31;;;;;;;1999.90;999.90;;;26.90;99.90;;;;;;5031621;28;20212;-64
2022/06/03 08:42:14;;;;;;;1999.90;999.90;;;26.60;99.90;;;;;;5031629;28;20749;-63
2022/06/03 08:44:50;;;;;;;1999.90;999.90;;;26.80;99.90;;;;;;5031615;28;20189;-63
2022/06/03 08:47:21;;;;;;;1999.90;999.90;;;26.90;99.90;;;;;;5061232;28;20209;-63
2022/06/03 08:49:58;;;;;;;1999.90;999.90;;;26.70;99.90;;;;;;5114294;28;20205;-63
2022/06/03 08:52:34;;;;;;;1999.90;999.90;;;27.10;99.90;;;;;;5114491;28;20206;-63
2022/06/03 08:55:22;;;;;;;1999.90;999.90;;;26.60;99.90;;;;;;5114118;28;20242;-63
2022/06/03 08:57:54;;;;;;;1999.90;999.90;;;26.20;99.90;;;;;;5114350;28;20198;-63
2022/06/03 09:00:25;;;;;;;1999.90;999.90;;;26.30;99.90;;;;;;5113362;28;20182;-63
2022/06/03 09:02:58;;;;;;;1999.90;999.90;;;26.30;99.90;;;;;;5114399;28;20189;-63
2022/06/03 09:05:30;;;;;;;1999.90;999.90;;;26.70;99.90;;;;;;5114137;28;20231;-63
2022/06/03 09:08:04;;;;;;;1999.90;999.90;;;26.60;99.90;;;;;;5114245;28;20185;-63
2022/06/03 09:10:35;;;;;;;1999.90;999.90;;;26.70;99.90;;;;;;5113868;28;20193;-63
2022/06/03 09:13:16;;;;;;;1999.90;999.90;;;26.40;99.90;;;;;;5114140;28;20178;-63
2022/06/03 09:15:45;;;;;;;1999.90;999.90;;;26.70;99.90;;;;;;5114122;28;20565;-63
2022/06/03 09:18:16;;;;;;;1999.90;999.90;;;26.80;99.90;;;;;;5113530;28;20224;-63
2022/06/03 09:20:47;;;;;;;1999.90;999.90;;;27.40;99.90;;;;;;5113893;28;20205;-63
2022/06/03 09:23:19;;;;;;;1999.90;999.90;;;27.30;99.90;;;;;;5113974;28;20193;-62
2022/06/03 09:25:50;;;;;;;1999.90;999.90;;;27.10;99.90;;;;;;5113821;28;20186;-63
2022/06/03 09:28:23;;;;;;;1999.90;999.90;;;26.80;99.90;;;;;;5113826;28;20227;-63
2022/06/03 09:30:52;;;;;;;1999.90;999.90;;;26.90;99.90;;;;;;5113471;28;20639;-63
2022/06/03 09:33:22;;;;;;;1999.90;999.90;;;27.90;99.90;;;;;;5113779;28;20208;-62
2022/06/03 09:35:52;;;;;;;1999.90;999.90;;;27.70;99.90;;;;;;5113543;28;20240;-63
2022/06/03 09:38:23;;;;;;;1999.90;999.90;;;27.30;99.90;;;;;;5113017;28;20233;-63
2022/06/03 09:40:52;;;;;;;1999.90;999.90;;;26.90;99.90;;;;;;5113515;28;20205;-63
2022/06/03 09:43:23;;;;;;;1999.90;999.90;;;26.70;99.90;;;;;;5113415;28;20201;-63
2022/06/03 09:45:52;;;;;;;1999.90;999.90;;;27.60;99.90;;;;;;5113529;28;20191;-62
2022/06/03 09:48:22;;;;;;;1999.90;999.90;;;27.20;99.90;;;;;;5113313;28;20197;-63
2022/06/03 09:50:51;;;;;;;1999.90;999.90;;;27.00;99.90;;;;;;5113330;28;20202;-63
2022/06/03 09:53:20;;;;;;;1999.90;999.90;;;27.10;99.90;;;;;;5113261;28;20196;-63
2022/06/03 09:55:51;;;;;;;1999.90;999.90;;;27.40;99.90;;;;;;5113384;28;20559;-63
2022/06/03 09:58:24;;;;;;;1999.90;999.90;;;26.80;99.90;;;;;;5113162;28;20377;-62
2022/06/03 10:00:53;;;;;;;1999.90;999.90;;;26.40;99.90;;;;;;5113223;28;20183;-62
2022/06/03 10:03:21;;;;;;;1999.90;999.90;;;26.40;99.90;;;;;;5113106;28;20255;-63
2022/06/03 10:05:51;;;;;;;1999.90;999.90;;;26.20;99.90;;;;;;5112920;28;20202;-62
2022/06/03 10:08:21;;;;;;;1999.90;999.90;;;26.30;99.90;;;;;;5112790;28;20205;-63
2022/06/03 10:13:38;;;;;;;1999.90;999.90;;;26.80;99.90;;;;;;5112604;28;20548;-62
2022/06/03 10:16:08;;;;;;;1999.90;999.90;;;26.90;99.90;;;;;;5112976;28;20182;-62
2022/06/03 10:18:38;;;;;;;1999.90;999.90;;;27.10;99.90;;;;;;5112603;28;20609;-63
2022/06/03 10:21:30;;;;;;;1999.90;999.90;;;26.60;99.90;;;;;;5112893;28;20189;-62
2022/06/03 10:23:59;;;;;;;1999.90;999.90;;;25.90;99.90;;;;;;5112843;28;20190;-62
2022/06/03 10:26:28;;;;;;;1999.90;999.90;;;26.50;99.90;;;;;;5112546;28;20646;-62
2022/06/03 10:29:04;;;;;;;1999.90;999.90;;;26.80;99.90;;;;;;5112537;28;20225;-63
2022/06/03 10:31:33;;;;;;;1999.90;999.90;;;27.00;99.90;;;;;;5112433;28;20657;-63
2022/06/03 10:34:03;;;;;;;1999.90;999.90;;;27.50;99.90;;;;;;5112748;28;20186;-62
2022/06/03 10:36:35;;;;;;;1999.90;999.90;;;27.70;99.90;;;;;;5112377;28;20182;-62
2022/06/03 10:39:02;;;;;;;1999.90;999.90;;;28.00;99.90;;;;;;5112608;28;20201;-63
2022/06/03 10:41:38;;;;;;;1999.90;999.90;;;27.70;99.90;;;;;;5112749;28;20270;-62
2022/06/03 10:44:13;;;;;;;1999.90;999.90;;;27.50;99.90;;;;;;5112465;28;20280;-62
2022/06/03 10:46:53;;;;;;;1999.90;999.90;;;28.10;99.90;;;;;;5112737;28;20617;-62
2022/06/03 10:49:21;;;;;;;1999.90;999.90;;;28.70;99.90;;;;;;5112340;28;20192;-63
2022/06/03 11:02:53;;;;;;;1999.90;999.90;;;28.60;99.90;;;;;;5112238;28;20952;-62
2022/06/03 11:05:24;;;;;;;1999.90;999.90;;;28.20;99.90;;;;;;5112346;28;20224;-62
2022/06/03 11:07:59;;;;;;;1999.90;999.90;;;28.00;99.90;;;;;;5112209;28;20179;-62
2022/06/03 11:10:31;;;;;;;1999.90;999.90;;;27.90;99.90;;;;;;5112183;28;20201;-63
2022/06/03 11:12:59;;;;;;;1999.90;999.90;;;28.00;99.90;;;;;;5112502;28;20189;-62
2022/06/03 11:15:33;;;;;;;1999.90;999.90;;;27.80;99.90;;;;;;5112350;28;20205;-62
2022/06/03 11:18:13;;;;;;;1999.90;999.90;;;27.20;99.90;;;;;;5112245;28;20202;-62
2022/06/03 11:20:41;;;;;;;1999.90;999.90;;;27.30;99.90;;;;;;5112268;28;20200;-62
2022/06/03 11:23:10;;;;;;;1999.90;999.90;;;27.30;99.90;;;;;;5112383;28;20197;-62
2022/06/03 11:25:39;;;;;;;1999.90;999.90;;;27.10;99.90;;;;;;5116146;28;20189;-62
2022/06/03 11:28:10;;;;;;;1999.90;999.90;;;27.00;99.90;;;;;;5116207;28;20193;-62
2022/06/03 11:30:46;;;;;;;1999.90;999.90;;;26.80;99.90;;;;;;5115871;28;20193;-62
2022/06/03 11:33:20;;;;;;;1999.90;999.90;;;26.80;99.90;;;;;;5116033;28;20186;-61
2022/06/03 11:35:54;;;;;;;1999.90;999.90;;;27.10;99.90;;;;;;5115622;28;20601;-62
2022/06/03 11:38:29;;;;;;;1999.90;999.90;;;27.10;99.90;;;;;;5115499;28;20229;-62
2022/06/03 11:41:01;;;;;;;1999.90;999.90;;;27.60;99.90;;;;;;5115964;28;20592;-62
2022/06/03 11:43:35;;;;;;;1999.90;999.90;;;27.30;99.90;;;;;;5115837;28;20190;-62
2022/06/03 11:46:05;;;;;;;1999.90;999.90;;;27.00;99.90;;;;;;5115869;28;20186;-63
2022/06/03 11:48:37;;;;;;;1999.90;999.90;;;27.10;99.90;;;;;;5115756;28;20178;-63
2022/06/03 11:51:05;;;;;;;1999.90;999.90;;;27.30;99.90;;;;;;5115652;28;20174;-63
2022/06/03 11:53:35;;;;;;;1999.90;999.90;;;27.30;99.90;;;;;;5115698;28;20197;-62
2022/06/03 11:56:05;;;;;;;1999.90;999.90;;;27.90;99.90;;;;;;5115667;28;20194;-63
2022/06/03 11:58:46;;;;;;;1999.90;999.90;;;28.70;99.90;;;;;;5115815;28;20313;-62
2022/06/03 12:01:20;;;;;;;1999.90;999.90;;;28.90;99.90;;;;;;5115551;28;20178;-65
2022/06/03 12:03:55;;;;;;;1999.90;999.90;;;28.80;99.90;;;;;;5115204;28;20284;-63
2022/06/03 12:06:30;;;;;;;1999.90;999.90;;;28.80;96.90;;;;;;5115456;28;20345;-63
2022/06/03 12:09:04;;;;;;;1999.90;999.90;;;28.10;95.90;;;;;;5115072;28;20196;-66
2022/06/03 12:14:32;;;;;;;1999.90;999.90;;;27.00;99.90;;;;;;5114984;28;20181;-62
2022/06/03 12:17:17;;;;;;;1999.90;999.90;;;27.40;99.90;;;;;;5115174;28;20174;-64
2022/06/03 12:19:46;;;;;;;1999.90;999.90;;;27.80;99.90;;;;;;5114606;28;20209;-64
2022/06/03 12:22:39;;;;;;;1999.90;999.90;;;28.10;99.90;;;;;;5114766;28;20671;-63
2022/06/03 12:25:23;;;;;;;1999.90;999.90;;;27.90;99.90;;;;;;5115025;28;20201;-64
2022/06/03 12:27:54;;;;;;;1999.90;999.90;;;27.50;99.90;;;;;;5114528;28;20205;-63
2022/06/03 12:30:42;;;;;;;1999.90;999.90;;;27.20;99.90;;;;;;5114632;28;20189;-63
2022/06/03 12:33:25;;;;;;;1999.90;999.90;;;26.70;99.90;;;;;;5114927;28;20178;-63
2022/06/03 12:36:03;;;;;;;1999.90;999.90;;;26.90;99.90;;;;;;5114685;28;20177;-63
2022/06/03 12:38:49;;;;;;;1999.90;999.90;;;27.10;99.90;;;;;;5114306;28;20335;-64
2022/06/03 12:41:49;;;;;;;1999.90;999.90;;;27.00;99.90;;;;;;5110690;28;20206;-64
2022/06/03 12:44:41;;;;;;;1999.90;999.90;;;27.10;99.90;;;;;;5114410;28;20174;-64
2022/06/03 12:47:29;;;;;;;1999.90;999.90;;;27.10;99.90;;;;;;5114657;28;20337;-63
2022/06/03 12:50:18;;;;;;;1999.90;999.90;;;27.20;99.90;;;;;;5114264;28;20642;-63
2022/06/03 12:52:46;;;;;;;1999.90;999.90;;;27.20;99.90;;;;;;5113969;28;20566;-63
2022/06/03 12:55:24;;;;;;;1999.90;999.90;;;27.30;99.90;;;;;;5114446;28;20197;-63
2022/06/03 12:57:55;;;;;;;1999.90;999.90;;;27.10;99.90;;;;;;5114456;28;20185;-63
2022/06/03 13:00:27;;;;;;;1999.90;999.90;;;27.10;99.90;;;;;;5114313;28;20202;-62
2022/06/03 13:02:56;;;;;;;1999.90;999.90;;;27.30;99.90;;;;;;5114008;28;20186;-62
2022/06/03 13:05:40;;;;;;;1999.90;999.90;;;27.60;99.90;;;;;;5113547;28;20552;-64
2022/06/03 13:08:10;;;;;;;1999.90;999.90;;;27.50;99.90;;;;;;5111559;28;20188;-64
2022/06/03 13:11:00;;;;;;;1999.90;999.90;;;27.40;99.90;;;;;;5113980;28;20182;-64
2022/06/03 13:13:49;;;;;;;1999.90;999.90;;;27.20;99.90;;;;;;5113429;28;20185;-65
2022/06/03 13:16:39;;;;;;;1999.90;999.90;;;27.70;99.90;;;;;;5114012;28;20277;-64
2022/06/03 13:19:44;;;;;;;1999.90;999.90;;;27.60;99.60;;;;;;5113598;28;20229;-63
2022/06/03 13:22:20;;;;;;;1999.90;999.90;;;27.80;99.90;;;;;;5113776;28;20194;-63
2022/06/03 13:25:39;;;;;;;1999.90;999.90;;;27.80;99.90;;;;;;5113855;28;20182;-64
2022/06/03 13:28:15;;;;;;;1999.90;999.90;;;27.70;99.90;;;;;;5113194;28;20206;-63
2022/06/03 13:30:42;;;;;;;1999.90;999.90;;;27.20;99.90;;;;;;5113364;28;20230;-64
2022/06/03 13:33:19;;;;;;;1999.90;999.90;;;26.90;99.70;;;;;;5113631;28;20204;-63
2022/06/03 13:36:02;;;;;;;1999.90;999.90;;;27.00;99.90;;;;;;5113622;28;20181;-63
2022/06/03 13:38:45;;;;;;;1999.90;999.90;;;27.30;99.90;;;;;;5112335;28;20233;-63
2022/06/03 13:44:10;;;;;;;1999.90;999.90;;;26.90;99.90;;;;;;5113566;28;20178;-63
2022/06/03 13:46:39;;;;;;;1999.90;999.90;;;27.00;99.90;;;;;;5112567;28;20310;-62
2022/06/03 13:49:22;;;;;;;1999.90;999.90;;;26.90;99.90;;;;;;5113320;28;20632;-62
2022/06/03 13:51:52;;;;;;;1999.90;999.90;;;26.90;99.90;;;;;;5113290;28;20193;-62